Time;durP1;ratioP1;P1;durP2;ratioP2;P2;SDS_P1;SDS_P2;PMS_P1;PMS_P2;Temp;Humidity;BMP_temperature;BMP_pressure;BME280_temperature;BME280_humidity;BME280_pressure;Samples;Min_cycle;Max_cycle;Signal;HPM_P1;HPM_P2
2023/01/27 16:23:49;;;;;;;7.22;4.47;;;4.30;99.90;;;;;;5031726;27;1942452;-62
2023/01/27 16:26:39;;;;;;;7.95;4.90;;;4.30;99.90;;;;;;5050854;28;20040;-62
2023/01/27 16:29:11;;;;;;;9.68;5.05;;;4.30;99.90;;;;;;5053906;28;20484;-64
2023/01/27 16:31:40;;;;;;;8.88;5.88;;;4.40;99.90;;;;;;5049457;28;20048;-63
2023/01/27 16:34:16;;;;;;;7.72;5.38;;;4.50;99.90;;;;;;5068161;28;20117;-63
2023/01/27 16:36:42;;;;;;;7.93;4.82;;;4.60;99.90;;;;;;5073814;28;20024;-63
2023/01/27 16:39:17;;;;;;;9.13;5.25;;;4.60;99.90;;;;;;5080644;28;20451;-64
2023/01/27 16:41:51;;;;;;;8.02;5.28;;;4.70;99.90;;;;;;5064056;28;20029;-64
2023/01/27 16:44:24;;;;;;;7.80;4.95;;;4.70;99.90;;;;;;5049139;28;20070;-64
2023/01/27 16:47:00;;;;;;;8.15;5.32;;;4.70;99.90;;;;;;5060785;28;20013;-64
2023/01/27 16:49:35;;;;;;;7.65;5.18;;;4.80;99.90;;;;;;5028935;28;20079;-64
2023/01/27 16:52:03;;;;;;;7.53;4.82;;;4.80;99.90;;;;;;5032526;28;20060;-64
2023/01/27 16:54:41;;;;;;;8.50;4.88;;;4.80;99.90;;;;;;5048718;28;20031;-63
2023/01/27 16:57:25;;;;;;;8.05;4.88;;;4.80;99.90;;;;;;5067209;28;20036;-64
2023/01/27 16:59:52;;;;;;;9.10;4.97;;;4.80;99.90;;;;;;5065999;28;20111;-64
2023/01/27 17:02:22;;;;;;;8.60;5.10;;;4.80;99.90;;;;;;5048441;28;20028;-63
2023/01/27 17:04:57;;;;;;;8.40;5.25;;;4.80;99.90;;;;;;5066942;28;20496;-65
2023/01/27 17:07:24;;;;;;;7.57;4.75;;;4.80;99.90;;;;;;5048576;28;20108;-64
2023/01/27 17:09:52;;;;;;;8.02;5.30;;;4.80;99.90;;;;;;5066445;28;20109;-63
2023/01/27 17:12:38;;;;;;;6.88;4.28;;;4.80;99.90;;;;;;5066496;28;20016;-63
2023/01/27 17:15:36;;;;;;;7.65;4.38;;;4.80;99.90;;;;;;5072023;28;20030;-63
2023/01/27 17:18:08;;;;;;;6.13;4.05;;;4.80;99.90;;;;;;5085005;28;20107;-63
2023/01/27 17:20:38;;;;;;;12.40;6.82;;;4.80;99.90;;;;;;5085705;28;20028;-63
2023/01/27 17:23:04;;;;;;;11.15;5.95;;;4.80;99.90;;;;;;5074660;28;20072;-64
2023/01/27 17:25:36;;;;;;;9.90;5.40;;;4.80;99.90;;;;;;5066465;28;20099;-63
2023/01/27 17:28:19;;;;;;;8.95;5.57;;;4.80;99.90;;;;;;5046119;28;20025;-63
2023/01/27 17:30:45;;;;;;;10.38;5.68;;;4.80;99.90;;;;;;5045815;28;20025;-62
2023/01/27 17:33:18;;;;;;;11.73;6.50;;;4.80;99.90;;;;;;5023731;28;20566;-62
2023/01/27 17:35:55;;;;;;;8.65;5.25;;;4.80;99.90;;;;;;5014461;28;20032;-65
2023/01/27 17:38:45;;;;;;;9.57;5.85;;;4.80;99.90;;;;;;5033084;28;20029;-65
2023/01/27 17:41:28;;;;;;;9.65;5.63;;;4.80;99.90;;;;;;5049520;28;20030;-63
2023/01/27 17:43:57;;;;;;;8.85;5.47;;;4.80;99.90;;;;;;5072496;28;20098;-64
2023/01/27 17:46:25;;;;;;;7.30;4.65;;;4.80;99.90;;;;;;5055632;28;20121;-65
2023/01/27 17:49:04;;;;;;;9.27;5.47;;;4.80;99.90;;;;;;5071792;28;20020;-64
2023/01/27 17:51:40;;;;;;;9.35;5.40;;;4.80;99.90;;;;;;5072528;28;20492;-66
2023/01/27 17:54:23;;;;;;;7.68;5.03;;;4.80;99.90;;;;;;5060953;28;20071;-65
2023/01/27 17:57:02;;;;;;;7.97;4.63;;;4.80;99.90;;;;;;5061603;28;20064;-64
2023/01/27 17:59:28;;;;;;;7.38;4.50;;;4.80;99.90;;;;;;5072428;28;20021;-65
2023/01/27 18:01:58;;;;;;;9.68;5.15;;;4.70;99.90;;;;;;5072375;28;20435;-64
2023/01/27 18:04:24;;;;;;;8.35;5.28;;;4.70;99.90;;;;;;5072642;28;20051;-64
2023/01/27 18:06:51;;;;;;;11.82;7.45;;;4.70;99.90;;;;;;5055270;28;20028;-64
2023/01/27 18:09:25;;;;;;;10.82;6.60;;;4.70;99.90;;;;;;5069374;28;20032;-64
2023/01/27 18:12:00;;;;;;;11.30;6.20;;;4.70;99.90;;;;;;5054442;28;20496;-64
2023/01/27 18:14:31;;;;;;;10.75;6.50;;;4.70;99.90;;;;;;5071970;28;20031;-65
2023/01/27 18:17:21;;;;;;;11.02;6.88;;;4.70;99.90;;;;;;5057512;28;20017;-64
2023/01/27 18:19:55;;;;;;;9.13;6.45;;;4.60;99.90;;;;;;5036210;28;20119;-63
2023/01/27 18:22:24;;;;;;;9.63;6.43;;;4.70;99.90;;;;;;5048133;28;20053;-66
2023/01/27 18:25:15;;;;;;;9.95;6.45;;;4.60;99.90;;;;;;5056571;28;20127;-65
2023/01/27 18:27:51;;;;;;;10.30;6.57;;;4.60;99.90;;;;;;5035808;28;20041;-65
2023/01/27 18:30:19;;;;;;;10.82;6.80;;;4.60;99.90;;;;;;5039007;28;20021;-65
2023/01/27 18:32:48;;;;;;;9.70;6.72;;;4.60;99.90;;;;;;5042691;28;20027;-64
2023/01/27 18:35:26;;;;;;;10.60;6.78;;;4.60;99.90;;;;;;5052307;28;20024;-66
2023/01/27 18:37:58;;;;;;;12.07;7.40;;;4.60;99.90;;;;;;5036200;28;20037;-66
2023/01/27 18:40:35;;;;;;;10.45;6.93;;;4.50;99.90;;;;;;5072225;28;20363;-64
2023/01/27 18:43:03;;;;;;;10.20;6.50;;;4.60;99.90;;;;;;5066567;28;20033;-64
2023/01/27 18:45:29;;;;;;;11.25;6.65;;;4.60;99.90;;;;;;5047970;28;20039;-64
2023/01/27 18:47:56;;;;;;;9.82;6.30;;;4.60;99.90;;;;;;5054127;28;20373;-65
2023/01/27 18:50:23;;;;;;;10.45;6.65;;;4.60;99.90;;;;;;5071770;28;20388;-65
2023/01/27 18:52:51;;;;;;;9.90;6.07;;;4.60;99.90;;;;;;5055193;28;20474;-65
2023/01/27 18:55:24;;;;;;;13.63;6.80;;;4.50;99.90;;;;;;5033978;28;20021;-66
2023/01/27 18:57:52;;;;;;;10.32;6.43;;;4.50;99.90;;;;;;5051771;28;20025;-64
2023/01/27 19:00:21;;;;;;;10.65;7.05;;;4.50;99.90;;;;;;5051642;28;20086;-66
2023/01/27 19:02:50;;;;;;;10.80;6.80;;;4.50;99.90;;;;;;5050988;28;20127;-64
2023/01/27 19:05:27;;;;;;;9.30;6.00;;;4.60;99.90;;;;;;5051266;28;20108;-64
2023/01/27 19:07:53;;;;;;;9.30;6.03;;;4.60;99.90;;;;;;5044097;28;20403;-65
2023/01/27 19:10:28;;;;;;;8.52;5.15;;;4.60;99.90;;;;;;5071763;28;20024;-64
2023/01/27 19:12:57;;;;;;;8.93;5.43;;;4.60;99.90;;;;;;5070676;28;20721;-63
2023/01/27 19:15:24;;;;;;;8.73;5.82;;;4.60;99.90;;;;;;5053403;28;20040;-63
2023/01/27 19:17:52;;;;;;;9.48;6.13;;;4.60;99.90;;;;;;5071700;28;20029;-63
2023/01/27 19:20:20;;;;;;;10.02;6.18;;;4.50;99.90;;;;;;5070968;28;20027;-62
2023/01/27 19:22:47;;;;;;;10.90;6.45;;;4.60;99.90;;;;;;5028623;28;20045;-64
2023/01/27 19:25:13;;;;;;;9.05;5.97;;;4.60;99.90;;;;;;5029226;28;20025;-64
2023/01/27 19:27:42;;;;;;;9.18;6.00;;;4.50;99.90;;;;;;5031037;28;20106;-63
2023/01/27 19:30:28;;;;;;;8.98;5.75;;;4.50;99.90;;;;;;5030137;28;20108;-63
2023/01/27 19:32:55;;;;;;;9.95;5.72;;;4.50;99.90;;;;;;5031189;28;20055;-63
2023/01/27 19:35:27;;;;;;;8.63;5.57;;;4.50;99.90;;;;;;5030145;28;20796;-64
2023/01/27 19:37:55;;;;;;;7.63;4.60;;;4.40;99.90;;;;;;5050379;28;20047;-64
2023/01/27 19:40:22;;;;;;;8.55;5.15;;;4.40;99.90;;;;;;5050646;28;20049;-64
2023/01/27 19:42:48;;;;;;;9.10;4.88;;;4.40;99.90;;;;;;5048931;28;20051;-63
2023/01/27 19:45:15;;;;;;;8.85;4.93;;;4.40;99.90;;;;;;5032188;28;20713;-63
2023/01/27 19:47:43;;;;;;;11.80;6.65;;;4.30;99.90;;;;;;5031066;28;20037;-64
2023/01/27 19:50:30;;;;;;;9.55;5.18;;;4.40;99.90;;;;;;5045105;28;20089;-63
2023/01/27 19:52:57;;;;;;;12.25;5.88;;;4.30;99.90;;;;;;5049686;28;20036;-64
2023/01/27 19:55:25;;;;;;;9.52;5.75;;;4.30;99.90;;;;;;5051092;28;20033;-65
2023/01/27 19:57:51;;;;;;;10.35;6.43;;;4.30;99.90;;;;;;5049740;28;20027;-63
2023/01/27 20:00:27;;;;;;;8.85;6.00;;;4.30;99.90;;;;;;5051918;28;20071;-65
2023/01/27 20:02:54;;;;;;;9.23;5.95;;;4.40;99.90;;;;;;5050866;28;20047;-64
2023/01/27 20:05:22;;;;;;;8.82;5.55;;;4.40;99.90;;;;;;5050254;28;20100;-64
2023/01/27 20:07:48;;;;;;;8.90;5.13;;;4.40;99.90;;;;;;5040137;28;20033;-64
2023/01/27 20:10:25;;;;;;;7.20;4.45;;;4.30;99.90;;;;;;5031860;28;20017;-64
2023/01/27 20:19:46;;;;;;;8.73;4.82;;;4.20;99.90;;;;;;5090102;28;20166;-64
2023/01/27 20:22:12;;;;;;;8.88;4.53;;;4.10;99.90;;;;;;5088658;28;20032;-64
2023/01/27 20:24:38;;;;;;;7.82;4.78;;;4.10;99.90;;;;;;5087060;28;20027;-65
2023/01/27 20:27:03;;;;;;;8.20;4.97;;;4.10;99.90;;;;;;5089406;28;20060;-64
2023/01/27 20:29:29;;;;;;;8.45;4.65;;;4.10;99.90;;;;;;5088457;28;20490;-64
2023/01/27 20:31:54;;;;;;;7.00;4.80;;;4.20;99.90;;;;;;5088847;28;20028;-64
2023/01/27 20:34:20;;;;;;;7.75;4.63;;;4.20;99.90;;;;;;5087425;28;20012;-65
2023/01/27 20:36:46;;;;;;;8.02;4.95;;;4.20;99.90;;;;;;5086788;28;20032;-65
2023/01/27 20:39:12;;;;;;;10.57;4.60;;;4.20;99.90;;;;;;5087639;28;20032;-64
2023/01/27 20:41:37;;;;;;;7.35;4.32;;;4.20;99.90;;;;;;5087198;28;20473;-64
2023/01/27 20:44:03;;;;;;;7.72;4.53;;;4.20;99.90;;;;;;5085687;28;20042;-64
2023/01/27 20:46:29;;;;;;;6.65;4.40;;;4.20;99.90;;;;;;5089150;28;20024;-65
2023/01/27 20:48:59;;;;;;;7.07;3.92;;;4.20;99.90;;;;;;5088266;28;20108;-65
2023/01/27 20:51:25;;;;;;;8.63;4.77;;;4.20;99.90;;;;;;5088516;28;20107;-64
2023/01/27 20:53:52;;;;;;;7.28;4.40;;;4.20;99.90;;;;;;5087133;28;20369;-65
2023/01/27 20:56:20;;;;;;;7.97;4.45;;;4.20;99.90;;;;;;5086787;28;20020;-64
2023/01/27 20:58:47;;;;;;;7.68;4.65;;;4.20;99.90;;;;;;5085888;28;20576;-65
2023/01/27 21:01:18;;;;;;;8.40;4.60;;;4.20;99.90;;;;;;5088329;28;20017;-65
2023/01/27 21:03:43;;;;;;;7.35;4.63;;;4.20;99.90;;;;;;5088374;28;20033;-65
2023/01/27 21:06:11;;;;;;;6.70;4.30;;;4.20;99.90;;;;;;5088370;28;20413;-65
2023/01/27 21:08:37;;;;;;;7.43;4.22;;;4.20;99.90;;;;;;5087884;28;20515;-65
2023/01/27 21:11:05;;;;;;;7.20;4.50;;;4.20;99.90;;;;;;5087122;28;20385;-65
2023/01/27 21:13:31;;;;;;;7.35;4.40;;;4.20;99.90;;;;;;5086434;28;20031;-64
2023/01/27 21:15:57;;;;;;;8.27;4.55;;;4.20;99.90;;;;;;5087181;28;20024;-64
2023/01/27 21:18:24;;;;;;;8.10;4.10;;;4.20;99.90;;;;;;5086853;28;20170;-64
2023/01/27 21:20:53;;;;;;;8.05;4.72;;;4.10;99.90;;;;;;5087517;28;20078;-65
2023/01/27 21:23:23;;;;;;;7.07;4.43;;;4.10;99.90;;;;;;5077751;28;20319;-65
2023/01/27 21:25:49;;;;;;;8.60;5.07;;;4.10;99.90;;;;;;5045750;28;20025;-64
2023/01/27 21:28:16;;;;;;;6.22;4.13;;;4.10;99.90;;;;;;5048403;28;20507;-65
2023/01/27 21:30:42;;;;;;;7.53;4.55;;;4.10;99.90;;;;;;5035154;28;20055;-65
2023/01/27 21:33:08;;;;;;;6.60;4.18;;;4.10;99.90;;;;;;5033973;28;20368;-65
2023/01/27 21:35:33;;;;;;;8.00;4.70;;;4.00;99.90;;;;;;5034737;28;20029;-65
2023/01/27 21:37:59;;;;;;;8.10;5.38;;;4.10;99.90;;;;;;5054811;28;20489;-65
2023/01/27 21:40:26;;;;;;;7.55;4.50;;;4.00;99.90;;;;;;5073654;28;20025;-65
2023/01/27 21:45:36;;;;;;;6.10;3.88;;;4.00;99.90;;;;;;5073854;28;20186;-64
2023/01/27 21:48:01;;;;;;;6.70;4.70;;;4.00;99.90;;;;;;5073815;28;20655;-64
2023/01/27 21:50:27;;;;;;;7.10;4.40;;;4.00;99.90;;;;;;5072773;28;20025;-65
2023/01/27 21:52:53;;;;;;;6.70;4.18;;;4.00;99.90;;;;;;5074077;28;20578;-65
2023/01/27 21:55:27;;;;;;;5.85;3.50;;;4.00;99.90;;;;;;5073254;28;20025;-64
2023/01/27 21:57:54;;;;;;;7.90;4.55;;;4.00;99.90;;;;;;5073182;28;20025;-64
2023/01/27 22:00:25;;;;;;;7.72;4.30;;;4.10;99.90;;;;;;5074058;28;20031;-64
2023/01/27 22:02:57;;;;;;;6.97;4.18;;;4.10;99.90;;;;;;5073543;28;20009;-64
2023/01/27 22:05:23;;;;;;;7.43;4.35;;;4.10;99.90;;;;;;5074168;28;20031;-65
2023/01/27 22:07:50;;;;;;;7.38;4.55;;;4.10;99.90;;;;;;5072737;28;20093;-65
2023/01/27 22:10:19;;;;;;;7.82;4.10;;;4.10;99.90;;;;;;5060290;28;20053;-64
2023/01/27 22:12:46;;;;;;;8.55;4.55;;;4.00;99.90;;;;;;5053516;28;20025;-65
2023/01/27 22:15:16;;;;;;;8.93;4.57;;;4.00;99.90;;;;;;5051615;28;20027;-65
2023/01/27 22:17:43;;;;;;;7.97;4.65;;;4.00;99.90;;;;;;5056576;28;20074;-65
2023/01/27 22:20:16;;;;;;;8.00;4.55;;;4.00;99.90;;;;;;5073700;28;20028;-64
2023/01/27 22:22:43;;;;;;;7.05;4.05;;;4.00;99.90;;;;;;5072986;28;20021;-65
2023/01/27 22:25:11;;;;;;;8.68;4.40;;;4.00;99.90;;;;;;5071851;28;20050;-65
2023/01/27 22:27:40;;;;;;;6.40;3.85;;;4.00;99.90;;;;;;5053071;28;20021;-65
2023/01/27 22:30:08;;;;;;;7.43;3.78;;;4.00;99.90;;;;;;5052215;28;20068;-65
2023/01/27 22:32:34;;;;;;;8.05;4.13;;;4.00;99.90;;;;;;5053354;28;20025;-65
2023/01/27 22:34:59;;;;;;;6.05;4.22;;;4.00;99.90;;;;;;5053350;28;20029;-65
2023/01/27 22:37:25;;;;;;;7.28;4.00;;;4.00;99.90;;;;;;5052929;28;20028;-65
2023/01/27 22:39:51;;;;;;;6.85;4.07;;;4.00;99.90;;;;;;5052013;28;20111;-65
2023/01/27 22:42:16;;;;;;;7.38;4.55;;;4.00;99.90;;;;;;5051153;28;20017;-66
2023/01/27 22:44:42;;;;;;;7.82;4.93;;;4.00;99.90;;;;;;5052548;28;20025;-65
2023/01/27 22:47:07;;;;;;;7.03;4.40;;;4.00;99.90;;;;;;5053330;28;20345;-64
2023/01/27 22:49:33;;;;;;;9.32;4.70;;;4.00;99.90;;;;;;5053494;28;20025;-66
2023/01/27 22:51:59;;;;;;;7.47;4.60;;;3.90;99.90;;;;;;5051231;28;20505;-66
2023/01/27 22:54:25;;;;;;;7.43;4.53;;;3.90;99.90;;;;;;5051622;28;20029;-65
2023/01/27 22:56:50;;;;;;;7.78;4.10;;;3.90;99.90;;;;;;5052634;28;20025;-65
2023/01/27 22:59:16;;;;;;;6.57;4.13;;;3.90;99.90;;;;;;5051208;28;20033;-64
2023/01/27 23:01:42;;;;;;;7.35;4.53;;;3.90;99.90;;;;;;5054585;28;20083;-64
2023/01/27 23:04:10;;;;;;;8.00;4.65;;;3.90;99.90;;;;;;5072066;28;20070;-64
2023/01/27 23:06:36;;;;;;;7.90;4.57;;;3.90;99.90;;;;;;5102455;28;20066;-64
